sensor_id;sensor_type;location;lat;lon;timestamp;P1;durP1;ratioP1;P2;durP2;ratioP2
1180;SDS011;579;52.046;8.532;2023-04-01T00:02:17;0.10;;;0.10;;
1180;SDS011;579;52.046;8.532;2023-04-01T00:04:43;0.10;;;0.10;;
1180;SDS011;579;52.046;8.532;2023-04-01T00:07:10;0.17;;;0.17;;
1180;SDS011;579;52.046;8.532;2023-04-01T00:09:36;0.10;;;0.10;;
1180;SDS011;579;52.046;8.532;2023-04-01T00:12:03;0.20;;;0.20;;
1180;SDS011;579;52.046;8.532;2023-04-01T00:14:29;0.20;;;0.20;;
1180;SDS011;579;52.046;8.532;2023-04-01T00:16:56;0.10;;;0.10;;
1180;SDS011;579;52.046;8.532;2023-04-01T00:24:40;0.10;;;0.10;;
1180;SDS011;579;52.046;8.532;2023-04-01T00:27:06;0.20;;;0.20;;
1180;SDS011;579;52.046;8.532;2023-04-01T00:29:33;0.20;;;0.20;;
1180;SDS011;579;52.046;8.532;2023-04-01T00:32:00;0.10;;;0.10;;
1180;SDS011;579;52.046;8.532;2023-04-01T00:34:26;0.25;;;0.25;;
1180;SDS011;579;52.046;8.532;2023-04-01T00:36:53;0.10;;;0.10;;
1180;SDS011;579;52.046;8.532;2023-04-01T00:39:19;0.10;;;0.10;;
1180;SDS011;579;52.046;8.532;2023-04-01T00:46:47;0.10;;;0.10;;
1180;SDS011;579;52.046;8.532;2023-04-01T00:49:13;0.10;;;0.10;;
1180;SDS011;579;52.046;8.532;2023-04-01T00:51:42;0.10;;;0.10;;
1180;SDS011;579;52.046;8.532;2023-04-01T00:54:11;0.10;;;0.10;;
1180;SDS011;579;52.046;8.532;2023-04-01T00:56:40;0.10;;;0.10;;
1180;SDS011;579;52.046;8.532;2023-04-01T00:59:14;0.10;;;0.10;;
1180;SDS011;579;52.046;8.532;2023-04-01T01:01:47;0.10;;;0.10;;
1180;SDS011;579;52.046;8.532;2023-04-01T01:09:31;0.20;;;0.20;;
1180;SDS011;579;52.046;8.532;2023-04-01T01:12:10;0.10;;;0.10;;
1180;SDS011;579;52.046;8.532;2023-04-01T01:14:43;0.20;;;0.20;;
1180;SDS011;579;52.046;8.532;2023-04-01T01:17:22;0.10;;;0.10;;
1180;SDS011;579;52.046;8.532;2023-04-01T01:31:41;0.10;;;0.10;;
1180;SDS011;579;52.046;8.532;2023-04-01T01:34:17;0.10;;;0.10;;
1180;SDS011;579;52.046;8.532;2023-04-01T01:36:52;0.10;;;0.10;;
1180;SDS011;579;52.046;8.532;2023-04-01T01:39:23;0.10;;;0.10;;
1180;SDS011;579;52.046;8.532;2023-04-01T01:41:55;0.10;;;0.10;;
1180;SDS011;579;52.046;8.532;2023-04-01T01:44:25;0.10;;;0.10;;
1180;SDS011;579;52.046;8.532;2023-04-01T01:46:53;0.10;;;0.10;;
1180;SDS011;579;52.046;8.532;2023-04-01T01:53:44;0.10;;;0.10;;
1180;SDS011;579;52.046;8.532;2023-04-01T01:56:11;0.10;;;0.10;;
1180;SDS011;579;52.046;8.532;2023-04-01T01:58:39;0.20;;;0.20;;
1180;SDS011;579;52.046;8.532;2023-04-01T02:01:11;0.10;;;0.10;;
1180;SDS011;579;52.046;8.532;2023-04-01T02:03:40;0.10;;;0.10;;
1180;SDS011;579;52.046;8.532;2023-04-01T02:06:10;0.15;;;0.15;;
1180;SDS011;579;52.046;8.532;2023-04-01T02:08:42;0.10;;;0.10;;
1180;SDS011;579;52.046;8.532;2023-04-01T02:16:14;0.10;;;0.10;;
1180;SDS011;579;52.046;8.532;2023-04-01T02:18:46;0.10;;;0.10;;
1180;SDS011;579;52.046;8.532;2023-04-01T02:21:15;0.10;;;0.10;;
1180;SDS011;579;52.046;8.532;2023-04-01T02:23:44;0.10;;;0.10;;
1180;SDS011;579;52.046;8.532;2023-04-01T02:26:12;0.10;;;0.10;;
1180;SDS011;579;52.046;8.532;2023-04-01T02:28:39;0.10;;;0.10;;
1180;SDS011;579;52.046;8.532;2023-04-01T02:31:08;0.10;;;0.10;;
1180;SDS011;579;52.046;8.532;2023-04-01T02:38:41;0.20;;;0.20;;
1180;SDS011;579;52.046;8.532;2023-04-01T02:41:08;0.10;;;0.10;;
1180;SDS011;579;52.046;8.532;2023-04-01T02:43:35;0.10;;;0.10;;
1180;SDS011;579;52.046;8.532;2023-04-01T02:46:01;0.10;;;0.10;;
1180;SDS011;579;52.046;8.532;2023-04-01T02:48:27;0.10;;;0.10;;
1180;SDS011;579;52.046;8.532;2023-04-01T02:50:54;0.10;;;0.10;;
1180;SDS011;579;52.046;8.532;2023-04-01T02:53:20;0.10;;;0.10;;
1180;SDS011;579;52.046;8.532;2023-04-01T02:55:47;0.10;;;0.10;;
1180;SDS011;579;52.046;8.532;2023-04-01T03:03:21;0.10;;;0.10;;
1180;SDS011;579;52.046;8.532;2023-04-01T03:05:47;0.10;;;0.10;;
1180;SDS011;579;52.046;8.532;2023-04-01T03:08:13;0.10;;;0.10;;
1180;SDS011;579;52.046;8.532;2023-04-01T03:10:40;0.10;;;0.10;;
1180;SDS011;579;52.046;8.532;2023-04-01T03:13:06;0.10;;;0.10;;
1180;SDS011;579;52.046;8.532;2023-04-01T03:15:32;0.10;;;0.10;;
1180;SDS011;579;52.046;8.532;2023-04-01T03:17:59;0.10;;;0.10;;
1180;SDS011;579;52.046;8.532;2023-04-01T03:25:26;0.10;;;0.10;;
1180;SDS011;579;52.046;8.532;2023-04-01T03:27:53;0.10;;;0.10;;
1180;SDS011;579;52.046;8.532;2023-04-01T03:30:20;0.10;;;0.10;;
1180;SDS011;579;52.046;8.532;2023-04-01T03:32:46;0.10;;;0.10;;
1180;SDS011;579;52.046;8.532;2023-04-01T03:35:12;0.10;;;0.10;;
1180;SDS011;579;52.046;8.532;2023-04-01T03:37:38;0.10;;;0.10;;
1180;SDS011;579;52.046;8.532;2023-04-01T03:40:06;0.13;;;0.13;;
1180;SDS011;579;52.046;8.532;2023-04-01T03:45:12;0.20;;;0.20;;
1180;SDS011;579;52.046;8.532;2023-04-01T03:47:39;0.10;;;0.10;;
1180;SDS011;579;52.046;8.532;2023-04-01T03:50:06;0.20;;;0.20;;
1180;SDS011;579;52.046;8.532;2023-04-01T03:52:33;0.20;;;0.20;;
1180;SDS011;579;52.046;8.532;2023-04-01T03:55:00;0.10;;;0.10;;
1180;SDS011;579;52.046;8.532;2023-04-01T03:57:27;0.20;;;0.20;;
1180;SDS011;579;52.046;8.532;2023-04-01T03:59:53;0.10;;;0.10;;
1180;SDS011;579;52.046;8.532;2023-04-01T04:07:18;0.10;;;0.10;;
1180;SDS011;579;52.046;8.532;2023-04-01T04:09:44;0.10;;;0.10;;
1180;SDS011;579;52.046;8.532;2023-04-01T04:12:11;0.20;;;0.20;;
1180;SDS011;579;52.046;8.532;2023-04-01T04:14:37;0.10;;;0.10;;
1180;SDS011;579;52.046;8.532;2023-04-01T04:17:03;0.10;;;0.10;;
1180;SDS011;579;52.046;8.532;2023-04-01T04:19:31;0.20;;;0.20;;
1180;SDS011;579;52.046;8.532;2023-04-01T04:21:59;0.20;;;0.20;;
1180;SDS011;579;52.046;8.532;2023-04-01T04:29:27;0.10;;;0.10;;
1180;SDS011;579;52.046;8.532;2023-04-01T04:31:53;0.10;;;0.10;;
1180;SDS011;579;52.046;8.532;2023-04-01T04:34:19;0.10;;;0.10;;
1180;SDS011;579;52.046;8.532;2023-04-01T04:36:47;0.10;;;0.10;;
1180;SDS011;579;52.046;8.532;2023-04-01T04:39:13;0.10;;;0.10;;
1180;SDS011;579;52.046;8.532;2023-04-01T04:41:40;0.10;;;0.10;;
1180;SDS011;579;52.046;8.532;2023-04-01T04:44:06;0.10;;;0.10;;
1180;SDS011;579;52.046;8.532;2023-04-01T04:49:13;0.10;;;0.10;;
1180;SDS011;579;52.046;8.532;2023-04-01T04:51:39;0.10;;;0.10;;
1180;SDS011;579;52.046;8.532;2023-04-01T04:54:06;0.10;;;0.10;;
1180;SDS011;579;52.046;8.532;2023-04-01T04:56:32;0.20;;;0.20;;
1180;SDS011;579;52.046;8.532;2023-04-01T04:58:59;0.10;;;0.10;;
1180;SDS011;579;52.046;8.532;2023-04-01T05:01:25;0.20;;;0.20;;
1180;SDS011;579;52.046;8.532;2023-04-01T05:03:51;0.30;;;0.30;;
1180;SDS011;579;52.046;8.532;2023-04-01T05:09:25;0.10;;;0.10;;
1180;SDS011;579;52.046;8.532;2023-04-01T05:11:51;0.10;;;0.10;;
1180;SDS011;579;52.046;8.532;2023-04-01T05:14:17;0.10;;;0.10;;
1180;SDS011;579;52.046;8.532;2023-04-01T05:16:44;0.10;;;0.10;;
1180;SDS011;579;52.046;8.532;2023-04-01T05:19:10;0.32;;;0.32;;
1180;SDS011;579;52.046;8.532;2023-04-01T05:21:36;0.60;;;0.60;;
1180;SDS011;579;52.046;8.532;2023-04-01T05:24:03;0.30;;;0.30;;
1180;SDS011;579;52.046;8.532;2023-04-01T05:31:38;0.32;;;0.32;;
1180;SDS011;579;52.046;8.532;2023-04-01T05:34:04;0.25;;;0.25;;
1180;SDS011;579;52.046;8.532;2023-04-01T05:36:31;0.20;;;0.20;;
1180;SDS011;579;52.046;8.532;2023-04-01T05:38:57;0.13;;;0.13;;
1180;SDS011;579;52.046;8.532;2023-04-01T05:41:24;0.10;;;0.10;;
1180;SDS011;579;52.046;8.532;2023-04-01T05:43:50;0.25;;;0.25;;
1180;SDS011;579;52.046;8.532;2023-04-01T05:46:16;0.20;;;0.20;;
1180;SDS011;579;52.046;8.532;2023-04-01T05:51:23;0.10;;;0.10;;
1180;SDS011;579;52.046;8.532;2023-04-01T05:53:49;0.10;;;0.10;;
1180;SDS011;579;52.046;8.532;2023-04-01T05:56:15;0.10;;;0.10;;
1180;SDS011;579;52.046;8.532;2023-04-01T05:58:41;0.10;;;0.10;;
1180;SDS011;579;52.046;8.532;2023-04-01T06:01:08;0.10;;;0.10;;
1180;SDS011;579;52.046;8.532;2023-04-01T06:03:37;0.10;;;0.10;;
1180;SDS011;579;52.046;8.532;2023-04-01T06:06:04;0.10;;;0.10;;
1180;SDS011;579;52.046;8.532;2023-04-01T06:09:46;0.00;;;0.00;;
1180;SDS011;579;52.046;8.532;2023-04-01T06:12:16;0.10;;;0.10;;
1180;SDS011;579;52.046;8.532;2023-04-01T06:15:04;0.00;;;0.00;;
1180;SDS011;579;52.046;8.532;2023-04-01T06:17:48;0.00;;;0.00;;
1180;SDS011;579;52.046;8.532;2023-04-01T06:20:36;0.00;;;0.00;;
1180;SDS011;579;52.046;8.532;2023-04-01T06:26:11;0.00;;;0.00;;
1180;SDS011;579;52.046;8.532;2023-04-01T06:29:47;0.00;;;0.00;;
1180;SDS011;579;52.046;8.532;2023-04-01T06:32:41;0.00;;;0.00;;
1180;SDS011;579;52.046;8.532;2023-04-01T06:35:25;0.00;;;0.00;;
1180;SDS011;579;52.046;8.532;2023-04-01T06:38:26;0.00;;;0.00;;
1180;SDS011;579;52.046;8.532;2023-04-01T06:44:16;0.00;;;0.00;;
1180;SDS011;579;52.046;8.532;2023-04-01T06:51:59;0.10;;;0.10;;
1180;SDS011;579;52.046;8.532;2023-04-01T06:54:34;0.10;;;0.10;;
1180;SDS011;579;52.046;8.532;2023-04-01T06:57:12;0.10;;;0.10;;
1180;SDS011;579;52.046;8.532;2023-04-01T06:59:47;0.13;;;0.13;;
1180;SDS011;579;52.046;8.532;2023-04-01T07:02:17;0.10;;;0.10;;
1180;SDS011;579;52.046;8.532;2023-04-01T07:04:51;0.10;;;0.10;;
1180;SDS011;579;52.046;8.532;2023-04-01T07:10:17;0.20;;;0.20;;
1180;SDS011;579;52.046;8.532;2023-04-01T07:12:51;0.10;;;0.10;;
1180;SDS011;579;52.046;8.532;2023-04-01T07:15:22;0.10;;;0.10;;
1180;SDS011;579;52.046;8.532;2023-04-01T07:17:57;0.10;;;0.10;;
1180;SDS011;579;52.046;8.532;2023-04-01T07:20:29;0.10;;;0.10;;
1180;SDS011;579;52.046;8.532;2023-04-01T07:22:58;0.10;;;0.10;;
1180;SDS011;579;52.046;8.532;2023-04-01T07:25:29;0.10;;;0.10;;
1180;SDS011;579;52.046;8.532;2023-04-01T07:34:22;0.90;;;0.90;;
1180;SDS011;579;52.046;8.532;2023-04-01T07:36:52;0.50;;;0.50;;
1180;SDS011;579;52.046;8.532;2023-04-01T07:39:29;0.85;;;0.85;;
1180;SDS011;579;52.046;8.532;2023-04-01T07:42:05;0.70;;;0.70;;
1180;SDS011;579;52.046;8.532;2023-04-01T07:44:43;1.00;;;1.00;;
1180;SDS011;579;52.046;8.532;2023-04-01T07:47:25;0.70;;;0.70;;
1180;SDS011;579;52.046;8.532;2023-04-01T07:52:55;1.02;;;1.02;;
1180;SDS011;579;52.046;8.532;2023-04-01T07:55:34;1.23;;;1.23;;
1180;SDS011;579;52.046;8.532;2023-04-01T07:58:10;0.73;;;0.73;;
1180;SDS011;579;52.046;8.532;2023-04-01T08:00:46;1.33;;;1.33;;
1180;SDS011;579;52.046;8.532;2023-04-01T08:03:21;0.70;;;0.70;;
1180;SDS011;579;52.046;8.532;2023-04-01T08:06:03;1.38;;;1.38;;
1180;SDS011;579;52.046;8.532;2023-04-01T08:08:40;1.10;;;1.10;;
1180;SDS011;579;52.046;8.532;2023-04-01T08:14:51;0.40;;;0.40;;
1180;SDS011;579;52.046;8.532;2023-04-01T08:17:28;0.52;;;0.52;;
1180;SDS011;579;52.046;8.532;2023-04-01T08:20:18;0.40;;;0.40;;
1180;SDS011;579;52.046;8.532;2023-04-01T08:22:57;0.52;;;0.52;;
1180;SDS011;579;52.046;8.532;2023-04-01T08:25:30;0.40;;;0.40;;
1180;SDS011;579;52.046;8.532;2023-04-01T08:27:59;0.43;;;0.43;;
1180;SDS011;579;52.046;8.532;2023-04-01T08:33:16;0.75;;;0.75;;
1180;SDS011;579;52.046;8.532;2023-04-01T08:35:48;0.80;;;0.80;;
1180;SDS011;579;52.046;8.532;2023-04-01T08:38:21;0.80;;;0.80;;
1180;SDS011;579;52.046;8.532;2023-04-01T08:40:55;0.50;;;0.50;;
1180;SDS011;579;52.046;8.532;2023-04-01T08:44:16;0.77;;;0.77;;
1180;SDS011;579;52.046;8.532;2023-04-01T08:55:27;0.50;;;0.50;;
1180;SDS011;579;52.046;8.532;2023-04-01T08:58:11;0.60;;;0.60;;
1180;SDS011;579;52.046;8.532;2023-04-01T09:01:12;0.55;;;0.55;;
1180;SDS011;579;52.046;8.532;2023-04-01T09:03:52;0.70;;;0.70;;
1180;SDS011;579;52.046;8.532;2023-04-01T09:06:46;0.47;;;0.47;;
1180;SDS011;579;52.046;8.532;2023-04-01T09:12:47;0.55;;;0.55;;
1180;SDS011;579;52.046;8.532;2023-04-01T09:15:27;0.88;;;0.88;;
1180;SDS011;579;52.046;8.532;2023-04-01T09:21:43;1.10;;;1.10;;
1180;SDS011;579;52.046;8.532;2023-04-01T09:25:01;1.10;;;1.10;;
1180;SDS011;579;52.046;8.532;2023-04-01T09:32:50;0.50;;;0.50;;
1180;SDS011;579;52.046;8.532;2023-04-01T09:35:45;1.00;;;1.00;;
1180;SDS011;579;52.046;8.532;2023-04-01T09:38:22;1.02;;;1.02;;
1180;SDS011;579;52.046;8.532;2023-04-01T09:40:55;0.90;;;0.90;;
1180;SDS011;579;52.046;8.532;2023-04-01T09:43:25;0.80;;;0.80;;
1180;SDS011;579;52.046;8.532;2023-04-01T09:54:30;0.73;;;0.73;;
1180;SDS011;579;52.046;8.532;2023-04-01T09:57:22;1.00;;;1.00;;
1180;SDS011;579;52.046;8.532;2023-04-01T10:00:29;1.05;;;1.05;;
1180;SDS011;579;52.046;8.532;2023-04-01T10:06:27;0.70;;;0.70;;
1180;SDS011;579;52.046;8.532;2023-04-01T10:13:00;0.70;;;0.70;;
1180;SDS011;579;52.046;8.532;2023-04-01T10:19:13;0.75;;;0.75;;
1180;SDS011;579;52.046;8.532;2023-04-01T10:25:29;0.65;;;0.65;;
1180;SDS011;579;52.046;8.532;2023-04-01T10:28:30;0.73;;;0.73;;
1180;SDS011;579;52.046;8.532;2023-04-01T10:36:58;0.50;;;0.50;;
1180;SDS011;579;52.046;8.532;2023-04-01T10:39:37;0.50;;;0.50;;
1180;SDS011;579;52.046;8.532;2023-04-01T10:43:28;0.50;;;0.50;;
1180;SDS011;579;52.046;8.532;2023-04-01T10:54:54;0.70;;;0.70;;
1180;SDS011;579;52.046;8.532;2023-04-01T10:57:50;0.88;;;0.88;;
1180;SDS011;579;52.046;8.532;2023-04-01T11:08:04;0.90;;;0.90;;
1180;SDS011;579;52.046;8.532;2023-04-01T11:14:25;0.40;;;0.40;;
1180;SDS011;579;52.046;8.532;2023-04-01T11:17:41;0.65;;;0.65;;
1180;SDS011;579;52.046;8.532;2023-04-01T11:20:35;0.50;;;0.50;;
1180;SDS011;579;52.046;8.532;2023-04-01T11:26:39;0.73;;;0.73;;
1180;SDS011;579;52.046;8.532;2023-04-01T11:29:29;0.52;;;0.52;;
1180;SDS011;579;52.046;8.532;2023-04-01T11:32:25;1.10;;;1.10;;
1180;SDS011;579;52.046;8.532;2023-04-01T11:35:03;0.98;;;0.98;;
1180;SDS011;579;52.046;8.532;2023-04-01T11:38:22;1.20;;;1.20;;
1180;SDS011;579;52.046;8.532;2023-04-01T11:41:02;1.10;;;1.10;;
1180;SDS011;579;52.046;8.532;2023-04-01T11:43:49;0.80;;;0.80;;
1180;SDS011;579;52.046;8.532;2023-04-01T11:46:36;1.40;;;1.40;;
1180;SDS011;579;52.046;8.532;2023-04-01T11:53:49;1.00;;;1.00;;
1180;SDS011;579;52.046;8.532;2023-04-01T11:56:33;1.15;;;1.15;;
1180;SDS011;579;52.046;8.532;2023-04-01T11:59:27;1.00;;;1.00;;
1180;SDS011;579;52.046;8.532;2023-04-01T12:02:19;1.00;;;1.00;;
1180;SDS011;579;52.046;8.532;2023-04-01T12:05:04;0.73;;;0.73;;
1180;SDS011;579;52.046;8.532;2023-04-01T12:08:00;0.80;;;0.80;;
1180;SDS011;579;52.046;8.532;2023-04-01T12:14:46;0.90;;;0.90;;
1180;SDS011;579;52.046;8.532;2023-04-01T12:17:29;0.95;;;0.95;;
1180;SDS011;579;52.046;8.532;2023-04-01T12:20:10;0.70;;;0.70;;
1180;SDS011;579;52.046;8.532;2023-04-01T12:22:55;1.30;;;1.30;;
1180;SDS011;579;52.046;8.532;2023-04-01T12:25:46;1.80;;;1.80;;
1180;SDS011;579;52.046;8.532;2023-04-01T12:28:36;1.30;;;1.30;;
1180;SDS011;579;52.046;8.532;2023-04-01T12:35:50;0.77;;;0.77;;
1180;SDS011;579;52.046;8.532;2023-04-01T12:38:30;1.17;;;1.17;;
1180;SDS011;579;52.046;8.532;2023-04-01T12:41:08;1.05;;;1.05;;
1180;SDS011;579;52.046;8.532;2023-04-01T12:46:53;1.20;;;1.20;;
1180;SDS011;579;52.046;8.532;2023-04-01T12:49:45;1.30;;;1.30;;
1180;SDS011;579;52.046;8.532;2023-04-01T12:56:47;0.90;;;0.90;;
1180;SDS011;579;52.046;8.532;2023-04-01T12:59:42;1.23;;;1.23;;
1180;SDS011;579;52.046;8.532;2023-04-01T13:02:37;1.10;;;1.10;;
1180;SDS011;579;52.046;8.532;2023-04-01T13:08:37;1.60;;;1.60;;
1180;SDS011;579;52.046;8.532;2023-04-01T13:11:09;2.05;;;2.05;;
1180;SDS011;579;52.046;8.532;2023-04-01T13:19:05;0.50;;;0.50;;
1180;SDS011;579;52.046;8.532;2023-04-01T13:21:38;0.80;;;0.80;;
1180;SDS011;579;52.046;8.532;2023-04-01T13:24:25;0.63;;;0.63;;
1180;SDS011;579;52.046;8.532;2023-04-01T13:27:16;0.63;;;0.63;;
1180;SDS011;579;52.046;8.532;2023-04-01T13:29:51;0.52;;;0.52;;
1180;SDS011;579;52.046;8.532;2023-04-01T13:32:31;0.77;;;0.77;;
1180;SDS011;579;52.046;8.532;2023-04-01T13:37:50;1.02;;;1.02;;
1180;SDS011;579;52.046;8.532;2023-04-01T13:40:33;0.70;;;0.70;;
1180;SDS011;579;52.046;8.532;2023-04-01T13:43:10;0.60;;;0.60;;
1180;SDS011;579;52.046;8.532;2023-04-01T13:45:46;1.00;;;1.00;;
1180;SDS011;579;52.046;8.532;2023-04-01T13:48:53;0.85;;;0.85;;
1180;SDS011;579;52.046;8.532;2023-04-01T13:58:57;0.85;;;0.85;;
1180;SDS011;579;52.046;8.532;2023-04-01T14:01:39;1.20;;;1.20;;
1180;SDS011;579;52.046;8.532;2023-04-01T14:04:14;0.73;;;0.73;;
1180;SDS011;579;52.046;8.532;2023-04-01T14:07:09;1.20;;;1.20;;
1180;SDS011;579;52.046;8.532;2023-04-01T14:12:39;0.75;;;0.75;;
1180;SDS011;579;52.046;8.532;2023-04-01T14:18:09;0.75;;;0.75;;
1180;SDS011;579;52.046;8.532;2023-04-01T14:21:04;0.50;;;0.50;;
1180;SDS011;579;52.046;8.532;2023-04-01T14:23:58;0.52;;;0.52;;
1180;SDS011;579;52.046;8.532;2023-04-01T14:27:03;0.70;;;0.70;;
1180;SDS011;579;52.046;8.532;2023-04-01T14:29:53;0.60;;;0.60;;
1180;SDS011;579;52.046;8.532;2023-04-01T14:32:35;0.60;;;0.60;;
1180;SDS011;579;52.046;8.532;2023-04-01T14:37:54;0.50;;;0.50;;
1180;SDS011;579;52.046;8.532;2023-04-01T14:40:34;0.70;;;0.70;;
1180;SDS011;579;52.046;8.532;2023-04-01T14:43:21;0.63;;;0.63;;
1180;SDS011;579;52.046;8.532;2023-04-01T14:49:30;0.70;;;0.70;;
1180;SDS011;579;52.046;8.532;2023-04-01T14:52:04;0.70;;;0.70;;
1180;SDS011;579;52.046;8.532;2023-04-01T14:57:58;0.40;;;0.40;;
1180;SDS011;579;52.046;8.532;2023-04-01T15:00:40;0.70;;;0.70;;
1180;SDS011;579;52.046;8.532;2023-04-01T15:03:22;0.65;;;0.65;;
1180;SDS011;579;52.046;8.532;2023-04-01T15:05:55;0.50;;;0.50;;
1180;SDS011;579;52.046;8.532;2023-04-01T15:08:47;0.40;;;0.40;;
1180;SDS011;579;52.046;8.532;2023-04-01T15:11:21;0.40;;;0.40;;
1180;SDS011;579;52.046;8.532;2023-04-01T15:18:17;0.55;;;0.55;;
1180;SDS011;579;52.046;8.532;2023-04-01T15:21:00;0.50;;;0.50;;
1180;SDS011;579;52.046;8.532;2023-04-01T15:23:56;0.70;;;0.70;;
1180;SDS011;579;52.046;8.532;2023-04-01T15:26:38;0.93;;;0.93;;
1180;SDS011;579;52.046;8.532;2023-04-01T15:32:26;0.60;;;0.60;;
1180;SDS011;579;52.046;8.532;2023-04-01T15:38:49;1.30;;;1.30;;
1180;SDS011;579;52.046;8.532;2023-04-01T15:41:21;1.33;;;1.33;;
1180;SDS011;579;52.046;8.532;2023-04-01T15:43:55;1.52;;;1.52;;
1180;SDS011;579;52.046;8.532;2023-04-01T15:46:24;1.55;;;1.55;;
1180;SDS011;579;52.046;8.532;2023-04-01T15:49:09;1.50;;;1.50;;
1180;SDS011;579;52.046;8.532;2023-04-01T15:51:48;1.83;;;1.83;;
1180;SDS011;579;52.046;8.532;2023-04-01T15:57:09;1.30;;;1.30;;
1180;SDS011;579;52.046;8.532;2023-04-01T15:59:54;1.20;;;1.20;;
1180;SDS011;579;52.046;8.532;2023-04-01T16:02:38;1.20;;;1.20;;
1180;SDS011;579;52.046;8.532;2023-04-01T16:05:22;1.00;;;1.00;;
1180;SDS011;579;52.046;8.532;2023-04-01T16:08:01;1.77;;;1.77;;
1180;SDS011;579;52.046;8.532;2023-04-01T16:11:06;0.88;;;0.88;;
1180;SDS011;579;52.046;8.532;2023-04-01T16:18:24;1.40;;;1.40;;
1180;SDS011;579;52.046;8.532;2023-04-01T16:21:07;1.45;;;1.45;;
1180;SDS011;579;52.046;8.532;2023-04-01T16:23:39;1.23;;;1.23;;
1180;SDS011;579;52.046;8.532;2023-04-01T16:26:13;1.63;;;1.63;;
1180;SDS011;579;52.046;8.532;2023-04-01T16:28:48;1.13;;;1.13;;
1180;SDS011;579;52.046;8.532;2023-04-01T16:31:25;0.85;;;0.85;;
1180;SDS011;579;52.046;8.532;2023-04-01T16:36:48;1.33;;;1.33;;
1180;SDS011;579;52.046;8.532;2023-04-01T16:39:21;1.40;;;1.40;;
1180;SDS011;579;52.046;8.532;2023-04-01T16:42:09;2.30;;;2.30;;
1180;SDS011;579;52.046;8.532;2023-04-01T16:44:49;2.85;;;2.85;;
1180;SDS011;579;52.046;8.532;2023-04-01T16:47:20;2.28;;;2.28;;
1180;SDS011;579;52.046;8.532;2023-04-01T16:49:54;2.45;;;2.45;;
1180;SDS011;579;52.046;8.532;2023-04-01T16:55:21;1.65;;;1.65;;
1180;SDS011;579;52.046;8.532;2023-04-01T16:58:00;2.13;;;2.13;;
1180;SDS011;579;52.046;8.532;2023-04-01T17:00:28;2.00;;;2.00;;
1180;SDS011;579;52.046;8.532;2023-04-01T17:03:03;1.35;;;1.35;;
1180;SDS011;579;52.046;8.532;2023-04-01T17:05:42;2.15;;;2.15;;
1180;SDS011;579;52.046;8.532;2023-04-01T17:08:22;1.60;;;1.60;;
1180;SDS011;579;52.046;8.532;2023-04-01T17:11:04;2.22;;;2.22;;
1180;SDS011;579;52.046;8.532;2023-04-01T17:13:49;2.47;;;2.47;;
1180;SDS011;579;52.046;8.532;2023-04-01T17:16:28;2.10;;;2.10;;
1180;SDS011;579;52.046;8.532;2023-04-01T17:22:27;2.08;;;2.08;;
1180;SDS011;579;52.046;8.532;2023-04-01T17:25:02;2.28;;;2.28;;
1180;SDS011;579;52.046;8.532;2023-04-01T17:27:48;2.97;;;2.97;;
1180;SDS011;579;52.046;8.532;2023-04-01T17:35:30;2.47;;;2.47;;
1180;SDS011;579;52.046;8.532;2023-04-01T17:38:04;2.80;;;2.80;;
1180;SDS011;579;52.046;8.532;2023-04-01T17:40:44;2.30;;;2.30;;
1180;SDS011;579;52.046;8.532;2023-04-01T17:43:26;2.70;;;2.70;;
1180;SDS011;579;52.046;8.532;2023-04-01T17:46:05;3.00;;;3.00;;
1180;SDS011;579;52.046;8.532;2023-04-01T17:48:51;1.95;;;1.95;;
1180;SDS011;579;52.046;8.532;2023-04-01T17:56:44;2.25;;;2.25;;
1180;SDS011;579;52.046;8.532;2023-04-01T17:59:29;1.95;;;1.95;;
1180;SDS011;579;52.046;8.532;2023-04-01T18:02:03;1.60;;;1.60;;
1180;SDS011;579;52.046;8.532;2023-04-01T18:08:02;1.70;;;1.70;;
1180;SDS011;579;52.046;8.532;2023-04-01T18:10:43;2.40;;;2.40;;
1180;SDS011;579;52.046;8.532;2023-04-01T18:18:32;1.73;;;1.73;;
1180;SDS011;579;52.046;8.532;2023-04-01T18:21:13;1.95;;;1.95;;
1180;SDS011;579;52.046;8.532;2023-04-01T18:23:50;1.52;;;1.52;;
1180;SDS011;579;52.046;8.532;2023-04-01T18:26:21;1.40;;;1.40;;
1180;SDS011;579;52.046;8.532;2023-04-01T18:28:54;2.35;;;2.35;;
1180;SDS011;579;52.046;8.532;2023-04-01T18:31:25;2.47;;;2.47;;
1180;SDS011;579;52.046;8.532;2023-04-01T18:36:47;1.17;;;1.17;;
1180;SDS011;579;52.046;8.532;2023-04-01T18:39:18;1.80;;;1.80;;
1180;SDS011;579;52.046;8.532;2023-04-01T18:41:55;1.80;;;1.80;;
1180;SDS011;579;52.046;8.532;2023-04-01T18:44:30;0.10;;;0.10;;
1180;SDS011;579;52.046;8.532;2023-04-01T18:47:13;0.10;;;0.10;;
1180;SDS011;579;52.046;8.532;2023-04-01T18:49:52;0.10;;;0.10;;
1180;SDS011;579;52.046;8.532;2023-04-01T18:55:20;0.10;;;0.10;;
1180;SDS011;579;52.046;8.532;2023-04-01T18:57:55;0.13;;;0.13;;
1180;SDS011;579;52.046;8.532;2023-04-01T19:00:39;0.20;;;0.20;;
1180;SDS011;579;52.046;8.532;2023-04-01T19:03:11;0.10;;;0.10;;
1180;SDS011;579;52.046;8.532;2023-04-01T19:05:47;0.10;;;0.10;;
1180;SDS011;579;52.046;8.532;2023-04-01T19:08:22;0.10;;;0.10;;
1180;SDS011;579;52.046;8.532;2023-04-01T19:10:56;0.10;;;0.10;;
1180;SDS011;579;52.046;8.532;2023-04-01T19:16:51;0.00;;;0.00;;
1180;SDS011;579;52.046;8.532;2023-04-01T19:19:29;0.05;;;0.05;;
1180;SDS011;579;52.046;8.532;2023-04-01T19:22:21;0.10;;;0.10;;
1180;SDS011;579;52.046;8.532;2023-04-01T19:25:15;0.10;;;0.10;;
1180;SDS011;579;52.046;8.532;2023-04-01T19:27:59;0.10;;;0.10;;
1180;SDS011;579;52.046;8.532;2023-04-01T19:30:41;0.10;;;0.10;;
1180;SDS011;579;52.046;8.532;2023-04-01T19:37:21;0.00;;;0.00;;
1180;SDS011;579;52.046;8.532;2023-04-01T19:39:58;0.10;;;0.10;;
1180;SDS011;579;52.046;8.532;2023-04-01T19:42:42;0.10;;;0.10;;
1180;SDS011;579;52.046;8.532;2023-04-01T19:45:20;0.00;;;0.00;;
1180;SDS011;579;52.046;8.532;2023-04-01T19:48:00;0.10;;;0.10;;
1180;SDS011;579;52.046;8.532;2023-04-01T19:50:58;0.10;;;0.10;;
1180;SDS011;579;52.046;8.532;2023-04-01T19:58:36;0.10;;;0.10;;
1180;SDS011;579;52.046;8.532;2023-04-01T20:01:12;0.20;;;0.20;;
1180;SDS011;579;52.046;8.532;2023-04-01T20:03:45;0.10;;;0.10;;
1180;SDS011;579;52.046;8.532;2023-04-01T20:06:18;0.30;;;0.30;;
1180;SDS011;579;52.046;8.532;2023-04-01T20:08:54;0.40;;;0.40;;
1180;SDS011;579;52.046;8.532;2023-04-01T20:11:38;0.60;;;0.60;;
1180;SDS011;579;52.046;8.532;2023-04-01T20:14:19;1.10;;;1.10;;
1180;SDS011;579;52.046;8.532;2023-04-01T20:21:46;1.85;;;1.85;;
1180;SDS011;579;52.046;8.532;2023-04-01T20:24:16;1.27;;;1.27;;
1180;SDS011;579;52.046;8.532;2023-04-01T20:26:48;1.30;;;1.30;;
1180;SDS011;579;52.046;8.532;2023-04-01T20:29:41;1.60;;;1.60;;
1180;SDS011;579;52.046;8.532;2023-04-01T20:32:28;1.70;;;1.70;;
1180;SDS011;579;52.046;8.532;2023-04-01T20:38:29;1.38;;;1.38;;
1180;SDS011;579;52.046;8.532;2023-04-01T20:41:40;1.50;;;1.50;;
1180;SDS011;579;52.046;8.532;2023-04-01T20:44:20;1.10;;;1.10;;
1180;SDS011;579;52.046;8.532;2023-04-01T20:46:53;1.38;;;1.38;;
1180;SDS011;579;52.046;8.532;2023-04-01T20:49:33;1.60;;;1.60;;
1180;SDS011;579;52.046;8.532;2023-04-01T20:52:17;1.60;;;1.60;;
1180;SDS011;579;52.046;8.532;2023-04-01T20:59:51;1.00;;;1.00;;
1180;SDS011;579;52.046;8.532;2023-04-01T21:02:40;1.90;;;1.90;;
1180;SDS011;579;52.046;8.532;2023-04-01T21:05:22;1.67;;;1.67;;
1180;SDS011;579;52.046;8.532;2023-04-01T21:08:13;1.65;;;1.65;;
1180;SDS011;579;52.046;8.532;2023-04-01T21:10:46;2.25;;;2.25;;
1180;SDS011;579;52.046;8.532;2023-04-01T21:13:29;1.70;;;1.70;;
1180;SDS011;579;52.046;8.532;2023-04-01T21:18:57;1.30;;;1.30;;
1180;SDS011;579;52.046;8.532;2023-04-01T21:21:49;1.45;;;1.45;;
1180;SDS011;579;52.046;8.532;2023-04-01T21:24:55;1.05;;;1.05;;
1180;SDS011;579;52.046;8.532;2023-04-01T21:27:45;1.80;;;1.80;;
1180;SDS011;579;52.046;8.532;2023-04-01T21:30:29;1.40;;;1.40;;
1180;SDS011;579;52.046;8.532;2023-04-01T21:33:20;0.98;;;0.98;;
1180;SDS011;579;52.046;8.532;2023-04-01T21:43:23;1.40;;;1.40;;
1180;SDS011;579;52.046;8.532;2023-04-01T21:46:24;1.38;;;1.38;;
1180;SDS011;579;52.046;8.532;2023-04-01T21:49:19;1.30;;;1.30;;
1180;SDS011;579;52.046;8.532;2023-04-01T21:52:17;1.15;;;1.15;;
1180;SDS011;579;52.046;8.532;2023-04-01T21:55:31;1.20;;;1.20;;
1180;SDS011;579;52.046;8.532;2023-04-01T22:01:02;0.85;;;0.85;;
1180;SDS011;579;52.046;8.532;2023-04-01T22:03:49;1.13;;;1.13;;